sensor_id;sensor_type;location;lat;lon;timestamp;P1;durP1;ratioP1;P2;durP2;ratioP2
11283;SDS011;5698;47.332;11.180;2022-11-11T00:02:17;6.30;;;5.80;;
11283;SDS011;5698;47.332;11.180;2022-11-11T00:04:44;6.23;;;5.70;;
11283;SDS011;5698;47.332;11.180;2022-11-11T00:07:11;5.17;;;4.67;;
11283;SDS011;5698;47.332;11.180;2022-11-11T00:09:38;5.10;;;4.40;;
11283;SDS011;5698;47.332;11.180;2022-11-11T00:12:07;5.57;;;5.00;;
11283;SDS011;5698;47.332;11.180;2022-11-11T00:14:34;5.10;;;4.70;;
11283;SDS011;5698;47.332;11.180;2022-11-11T00:17:01;5.83;;;5.33;;
11283;SDS011;5698;47.332;11.180;2022-11-11T00:19:45;5.40;;;4.90;;
11283;SDS011;5698;47.332;11.180;2022-11-11T00:22:35;4.73;;;4.33;;
11283;SDS011;5698;47.332;11.180;2022-11-11T00:25:19;5.07;;;4.57;;
11283;SDS011;5698;47.332;11.180;2022-11-11T00:27:47;4.80;;;4.40;;
11283;SDS011;5698;47.332;11.180;2022-11-11T00:30:14;4.60;;;4.10;;
11283;SDS011;5698;47.332;11.180;2022-11-11T00:32:41;4.70;;;4.30;;
11283;SDS011;5698;47.332;11.180;2022-11-11T00:35:08;4.93;;;4.43;;
11283;SDS011;5698;47.332;11.180;2022-11-11T00:37:53;5.10;;;4.70;;
11283;SDS011;5698;47.332;11.180;2022-11-11T00:40:20;5.17;;;4.70;;
11283;SDS011;5698;47.332;11.180;2022-11-11T00:42:48;4.87;;;4.47;;
11283;SDS011;5698;47.332;11.180;2022-11-11T00:45:15;4.93;;;4.43;;
11283;SDS011;5698;47.332;11.180;2022-11-11T00:47:42;6.30;;;4.20;;
11283;SDS011;5698;47.332;11.180;2022-11-11T00:50:27;4.60;;;4.20;;
11283;SDS011;5698;47.332;11.180;2022-11-11T00:53:13;5.03;;;4.47;;
11283;SDS011;5698;47.332;11.180;2022-11-11T00:55:41;4.60;;;4.20;;
11283;SDS011;5698;47.332;11.180;2022-11-11T00:58:10;4.43;;;4.03;;
11283;SDS011;5698;47.332;11.180;2022-11-11T01:00:37;4.80;;;4.40;;
11283;SDS011;5698;47.332;11.180;2022-11-11T01:03:04;3.70;;;3.40;;
11283;SDS011;5698;47.332;11.180;2022-11-11T01:05:31;3.57;;;3.27;;
11283;SDS011;5698;47.332;11.180;2022-11-11T01:07:58;3.57;;;3.27;;
11283;SDS011;5698;47.332;11.180;2022-11-11T01:10:25;3.53;;;3.23;;
11283;SDS011;5698;47.332;11.180;2022-11-11T01:13:06;2.87;;;2.67;;
11283;SDS011;5698;47.332;11.180;2022-11-11T01:15:42;2.87;;;2.67;;
11283;SDS011;5698;47.332;11.180;2022-11-11T01:18:12;2.83;;;2.63;;
11283;SDS011;5698;47.332;11.180;2022-11-11T01:20:40;2.70;;;2.50;;
11283;SDS011;5698;47.332;11.180;2022-11-11T01:23:07;2.30;;;2.10;;
11283;SDS011;5698;47.332;11.180;2022-11-11T01:25:36;2.27;;;2.10;;
11283;SDS011;5698;47.332;11.180;2022-11-11T01:28:04;2.40;;;2.20;;
11283;SDS011;5698;47.332;11.180;2022-11-11T01:30:34;2.60;;;2.27;;
11283;SDS011;5698;47.332;11.180;2022-11-11T01:33:01;2.83;;;2.47;;
11283;SDS011;5698;47.332;11.180;2022-11-11T01:35:28;2.50;;;2.30;;
11283;SDS011;5698;47.332;11.180;2022-11-11T01:37:55;2.33;;;2.13;;
11283;SDS011;5698;47.332;11.180;2022-11-11T01:40:23;2.27;;;2.17;;
11283;SDS011;5698;47.332;11.180;2022-11-11T01:42:50;2.33;;;2.00;;
11283;SDS011;5698;47.332;11.180;2022-11-11T01:48:16;1.90;;;1.80;;
11283;SDS011;5698;47.332;11.180;2022-11-11T01:51:04;3.23;;;1.80;;
11283;SDS011;5698;47.332;11.180;2022-11-11T01:53:36;2.20;;;2.00;;
11283;SDS011;5698;47.332;11.180;2022-11-11T01:56:03;1.80;;;1.60;;
11283;SDS011;5698;47.332;11.180;2022-11-11T01:58:31;1.70;;;1.60;;
11283;SDS011;5698;47.332;11.180;2022-11-11T02:00:59;1.73;;;1.63;;
11283;SDS011;5698;47.332;11.180;2022-11-11T02:03:27;2.00;;;1.80;;
11283;SDS011;5698;47.332;11.180;2022-11-11T02:05:57;2.27;;;1.57;;
11283;SDS011;5698;47.332;11.180;2022-11-11T02:08:23;1.50;;;1.33;;
11283;SDS011;5698;47.332;11.180;2022-11-11T02:10:59;1.50;;;1.40;;
11283;SDS011;5698;47.332;11.180;2022-11-11T02:13:29;1.60;;;1.50;;
11283;SDS011;5698;47.332;11.180;2022-11-11T02:16:16;1.80;;;1.70;;
11283;SDS011;5698;47.332;11.180;2022-11-11T02:18:44;1.50;;;1.40;;
11283;SDS011;5698;47.332;11.180;2022-11-11T02:21:12;1.50;;;1.40;;
11283;SDS011;5698;47.332;11.180;2022-11-11T02:23:44;1.77;;;1.67;;
11283;SDS011;5698;47.332;11.180;2022-11-11T02:26:18;1.73;;;1.63;;
11283;SDS011;5698;47.332;11.180;2022-11-11T02:28:46;1.50;;;1.40;;
11283;SDS011;5698;47.332;11.180;2022-11-11T02:31:13;1.40;;;1.30;;
11283;SDS011;5698;47.332;11.180;2022-11-11T02:33:40;1.43;;;1.27;;
11283;SDS011;5698;47.332;11.180;2022-11-11T02:36:07;1.43;;;1.33;;
11283;SDS011;5698;47.332;11.180;2022-11-11T02:38:40;1.27;;;1.17;;
11283;SDS011;5698;47.332;11.180;2022-11-11T02:41:09;1.30;;;1.20;;
11283;SDS011;5698;47.332;11.180;2022-11-11T02:43:54;1.70;;;1.60;;
11283;SDS011;5698;47.332;11.180;2022-11-11T02:46:21;1.30;;;1.20;;
11283;SDS011;5698;47.332;11.180;2022-11-11T02:48:48;2.07;;;1.10;;
11283;SDS011;5698;47.332;11.180;2022-11-11T02:51:15;1.27;;;1.17;;
11283;SDS011;5698;47.332;11.180;2022-11-11T02:53:41;1.33;;;1.23;;
11283;SDS011;5698;47.332;11.180;2022-11-11T02:56:10;2.57;;;1.30;;
11283;SDS011;5698;47.332;11.180;2022-11-11T02:58:57;1.30;;;1.20;;
11283;SDS011;5698;47.332;11.180;2022-11-11T03:01:24;1.97;;;1.10;;
11283;SDS011;5698;47.332;11.180;2022-11-11T03:03:51;1.97;;;1.37;;
11283;SDS011;5698;47.332;11.180;2022-11-11T03:06:18;1.93;;;1.03;;
11283;SDS011;5698;47.332;11.180;2022-11-11T03:08:45;1.63;;;1.00;;
11283;SDS011;5698;47.332;11.180;2022-11-11T03:11:13;2.13;;;1.10;;
11283;SDS011;5698;47.332;11.180;2022-11-11T03:13:51;0.90;;;0.90;;
11283;SDS011;5698;47.332;11.180;2022-11-11T03:16:18;0.97;;;0.97;;
11283;SDS011;5698;47.332;11.180;2022-11-11T03:19:14;1.17;;;1.07;;
11283;SDS011;5698;47.332;11.180;2022-11-11T03:21:40;1.53;;;1.17;;
11283;SDS011;5698;47.332;11.180;2022-11-11T03:24:07;1.10;;;1.00;;
11283;SDS011;5698;47.332;11.180;2022-11-11T03:26:36;1.13;;;1.03;;
11283;SDS011;5698;47.332;11.180;2022-11-11T03:29:03;1.20;;;1.10;;
11283;SDS011;5698;47.332;11.180;2022-11-11T03:31:30;1.57;;;1.20;;
11283;SDS011;5698;47.332;11.180;2022-11-11T03:33:57;1.20;;;1.00;;
11283;SDS011;5698;47.332;11.180;2022-11-11T03:36:42;4.03;;;1.10;;
11283;SDS011;5698;47.332;11.180;2022-11-11T03:39:26;1.20;;;1.00;;
11283;SDS011;5698;47.332;11.180;2022-11-11T03:41:55;0.97;;;0.80;;
11283;SDS011;5698;47.332;11.180;2022-11-11T03:44:22;1.10;;;1.00;;
11283;SDS011;5698;47.332;11.180;2022-11-11T03:46:52;1.33;;;0.90;;
11283;SDS011;5698;47.332;11.180;2022-11-11T03:49:19;1.23;;;1.10;;
11283;SDS011;5698;47.332;11.180;2022-11-11T03:51:46;0.90;;;0.80;;
11283;SDS011;5698;47.332;11.180;2022-11-11T03:54:13;1.63;;;0.80;;
11283;SDS011;5698;47.332;11.180;2022-11-11T03:56:40;0.70;;;0.70;;
11283;SDS011;5698;47.332;11.180;2022-11-11T03:59:08;1.60;;;0.80;;
11283;SDS011;5698;47.332;11.180;2022-11-11T04:01:35;1.13;;;0.80;;
11283;SDS011;5698;47.332;11.180;2022-11-11T04:04:20;1.83;;;0.87;;
11283;SDS011;5698;47.332;11.180;2022-11-11T04:07:04;0.90;;;0.90;;
11283;SDS011;5698;47.332;11.180;2022-11-11T04:10:05;2.90;;;0.93;;
11283;SDS011;5698;47.332;11.180;2022-11-11T04:12:50;1.20;;;0.80;;
11283;SDS011;5698;47.332;11.180;2022-11-11T04:15:37;1.17;;;0.90;;
11283;SDS011;5698;47.332;11.180;2022-11-11T04:18:22;0.80;;;0.80;;
11283;SDS011;5698;47.332;11.180;2022-11-11T04:21:02;0.97;;;0.90;;
11283;SDS011;5698;47.332;11.180;2022-11-11T04:23:47;1.00;;;0.90;;
11283;SDS011;5698;47.332;11.180;2022-11-11T04:26:14;1.00;;;0.90;;
11283;SDS011;5698;47.332;11.180;2022-11-11T04:28:40;0.80;;;0.80;;
11283;SDS011;5698;47.332;11.180;2022-11-11T04:31:25;1.20;;;0.80;;
11283;SDS011;5698;47.332;11.180;2022-11-11T04:33:52;1.03;;;0.93;;
11283;SDS011;5698;47.332;11.180;2022-11-11T04:36:18;0.80;;;0.80;;
11283;SDS011;5698;47.332;11.180;2022-11-11T04:38:45;0.87;;;0.77;;
11283;SDS011;5698;47.332;11.180;2022-11-11T04:41:29;0.70;;;0.60;;
11283;SDS011;5698;47.332;11.180;2022-11-11T04:43:56;0.60;;;0.60;;
11283;SDS011;5698;47.332;11.180;2022-11-11T04:46:42;1.30;;;0.67;;
11283;SDS011;5698;47.332;11.180;2022-11-11T04:49:09;1.17;;;0.73;;
11283;SDS011;5698;47.332;11.180;2022-11-11T04:51:36;0.80;;;0.80;;
11283;SDS011;5698;47.332;11.180;2022-11-11T04:54:17;0.70;;;0.63;;
11283;SDS011;5698;47.332;11.180;2022-11-11T04:56:44;0.83;;;0.67;;
11283;SDS011;5698;47.332;11.180;2022-11-11T04:59:14;0.70;;;0.70;;
11283;SDS011;5698;47.332;11.180;2022-11-11T05:01:42;0.70;;;0.70;;
11283;SDS011;5698;47.332;11.180;2022-11-11T05:04:27;0.60;;;0.60;;
11283;SDS011;5698;47.332;11.180;2022-11-11T05:06:54;0.83;;;0.73;;
11283;SDS011;5698;47.332;11.180;2022-11-11T05:09:38;0.60;;;0.60;;
11283;SDS011;5698;47.332;11.180;2022-11-11T05:12:05;0.60;;;0.60;;
11283;SDS011;5698;47.332;11.180;2022-11-11T05:14:32;0.40;;;0.40;;
11283;SDS011;5698;47.332;11.180;2022-11-11T05:17:18;0.60;;;0.60;;
11283;SDS011;5698;47.332;11.180;2022-11-11T05:20:02;0.67;;;0.67;;
11283;SDS011;5698;47.332;11.180;2022-11-11T05:22:46;0.70;;;0.70;;
11283;SDS011;5698;47.332;11.180;2022-11-11T05:25:13;0.50;;;0.50;;
11283;SDS011;5698;47.332;11.180;2022-11-11T05:27:51;1.93;;;0.60;;
11283;SDS011;5698;47.332;11.180;2022-11-11T05:30:19;0.50;;;0.50;;
11283;SDS011;5698;47.332;11.180;2022-11-11T05:32:51;0.80;;;0.70;;
11283;SDS011;5698;47.332;11.180;2022-11-11T05:35:20;0.60;;;0.60;;
11283;SDS011;5698;47.332;11.180;2022-11-11T05:37:47;0.60;;;0.60;;
11283;SDS011;5698;47.332;11.180;2022-11-11T05:40:35;0.70;;;0.70;;
11283;SDS011;5698;47.332;11.180;2022-11-11T05:43:02;1.10;;;1.00;;
11283;SDS011;5698;47.332;11.180;2022-11-11T05:45:29;0.73;;;0.73;;
11283;SDS011;5698;47.332;11.180;2022-11-11T05:48:00;4.67;;;3.67;;
11283;SDS011;5698;47.332;11.180;2022-11-11T05:50:28;2.97;;;2.77;;
11283;SDS011;5698;47.332;11.180;2022-11-11T05:52:55;1.23;;;1.13;;
11283;SDS011;5698;47.332;11.180;2022-11-11T05:55:22;2.03;;;0.90;;
11283;SDS011;5698;47.332;11.180;2022-11-11T05:57:49;1.50;;;1.40;;
11283;SDS011;5698;47.332;11.180;2022-11-11T06:00:16;0.77;;;0.77;;
11283;SDS011;5698;47.332;11.180;2022-11-11T06:02:43;0.70;;;0.60;;
11283;SDS011;5698;47.332;11.180;2022-11-11T06:05:12;0.60;;;0.60;;
11283;SDS011;5698;47.332;11.180;2022-11-11T06:07:39;0.80;;;0.60;;
11283;SDS011;5698;47.332;11.180;2022-11-11T06:10:06;2.13;;;0.60;;
11283;SDS011;5698;47.332;11.180;2022-11-11T06:12:57;0.50;;;0.50;;
11283;SDS011;5698;47.332;11.180;2022-11-11T06:15:29;0.70;;;0.70;;
11283;SDS011;5698;47.332;11.180;2022-11-11T06:17:58;0.70;;;0.70;;
11283;SDS011;5698;47.332;11.180;2022-11-11T06:20:27;0.83;;;0.60;;
11283;SDS011;5698;47.332;11.180;2022-11-11T06:22:54;0.63;;;0.63;;
11283;SDS011;5698;47.332;11.180;2022-11-11T06:25:22;0.90;;;0.80;;
11283;SDS011;5698;47.332;11.180;2022-11-11T06:28:07;0.50;;;0.50;;
11283;SDS011;5698;47.332;11.180;2022-11-11T06:30:34;0.70;;;0.70;;
11283;SDS011;5698;47.332;11.180;2022-11-11T06:33:01;0.50;;;0.50;;
11283;SDS011;5698;47.332;11.180;2022-11-11T06:35:29;0.70;;;0.60;;
11283;SDS011;5698;47.332;11.180;2022-11-11T06:37:56;0.60;;;0.60;;
11283;SDS011;5698;47.332;11.180;2022-11-11T06:40:23;0.70;;;0.67;;
11283;SDS011;5698;47.332;11.180;2022-11-11T06:42:50;0.50;;;0.50;;
11283;SDS011;5698;47.332;11.180;2022-11-11T06:45:17;0.60;;;0.60;;
11283;SDS011;5698;47.332;11.180;2022-11-11T06:47:44;0.63;;;0.63;;
11283;SDS011;5698;47.332;11.180;2022-11-11T06:50:11;0.60;;;0.60;;
11283;SDS011;5698;47.332;11.180;2022-11-11T06:52:39;0.53;;;0.53;;
11283;SDS011;5698;47.332;11.180;2022-11-11T06:55:06;0.60;;;0.60;;
11283;SDS011;5698;47.332;11.180;2022-11-11T06:57:33;0.60;;;0.60;;
11283;SDS011;5698;47.332;11.180;2022-11-11T07:00:00;0.63;;;0.40;;
11283;SDS011;5698;47.332;11.180;2022-11-11T07:02:28;0.60;;;0.57;;
11283;SDS011;5698;47.332;11.180;2022-11-11T07:04:55;0.57;;;0.57;;
11283;SDS011;5698;47.332;11.180;2022-11-11T07:07:22;0.90;;;0.60;;
11283;SDS011;5698;47.332;11.180;2022-11-11T07:09:50;0.60;;;0.60;;
11283;SDS011;5698;47.332;11.180;2022-11-11T07:12:19;0.70;;;0.70;;
11283;SDS011;5698;47.332;11.180;2022-11-11T07:14:47;0.60;;;0.60;;
11283;SDS011;5698;47.332;11.180;2022-11-11T07:17:14;0.87;;;0.60;;
11283;SDS011;5698;47.332;11.180;2022-11-11T07:19:41;0.50;;;0.50;;
11283;SDS011;5698;47.332;11.180;2022-11-11T07:22:08;0.70;;;0.70;;
11283;SDS011;5698;47.332;11.180;2022-11-11T07:24:35;0.57;;;0.53;;
11283;SDS011;5698;47.332;11.180;2022-11-11T07:27:03;11.00;;;1.47;;
11283;SDS011;5698;47.332;11.180;2022-11-11T07:29:30;17.60;;;2.53;;
11283;SDS011;5698;47.332;11.180;2022-11-11T07:31:57;1.37;;;0.90;;
11283;SDS011;5698;47.332;11.180;2022-11-11T07:34:24;0.90;;;0.90;;
11283;SDS011;5698;47.332;11.180;2022-11-11T07:36:52;0.90;;;0.90;;
11283;SDS011;5698;47.332;11.180;2022-11-11T07:39:19;1.33;;;1.23;;
11283;SDS011;5698;47.332;11.180;2022-11-11T07:41:46;2.87;;;2.67;;
11283;SDS011;5698;47.332;11.180;2022-11-11T07:44:15;3.43;;;3.07;;
11283;SDS011;5698;47.332;11.180;2022-11-11T07:46:41;3.20;;;2.90;;
11283;SDS011;5698;47.332;11.180;2022-11-11T07:49:08;3.97;;;3.57;;
11283;SDS011;5698;47.332;11.180;2022-11-11T07:51:35;3.07;;;2.87;;
11283;SDS011;5698;47.332;11.180;2022-11-11T07:54:03;5.10;;;4.80;;
11283;SDS011;5698;47.332;11.180;2022-11-11T07:56:30;2.00;;;1.90;;
11283;SDS011;5698;47.332;11.180;2022-11-11T07:58:57;2.13;;;1.90;;
11283;SDS011;5698;47.332;11.180;2022-11-11T08:01:25;0.90;;;0.90;;
11283;SDS011;5698;47.332;11.180;2022-11-11T08:03:52;0.90;;;0.70;;
11283;SDS011;5698;47.332;11.180;2022-11-11T08:06:20;0.50;;;0.50;;
11283;SDS011;5698;47.332;11.180;2022-11-11T08:08:47;0.50;;;0.50;;
11283;SDS011;5698;47.332;11.180;2022-11-11T08:11:15;0.50;;;0.50;;
11283;SDS011;5698;47.332;11.180;2022-11-11T08:14:03;1.17;;;0.77;;
11283;SDS011;5698;47.332;11.180;2022-11-11T08:16:30;0.97;;;0.80;;
11283;SDS011;5698;47.332;11.180;2022-11-11T08:18:57;1.07;;;0.50;;
11283;SDS011;5698;47.332;11.180;2022-11-11T08:21:24;21.03;;;1.77;;
11283;SDS011;5698;47.332;11.180;2022-11-11T08:23:52;8.63;;;1.00;;
11283;SDS011;5698;47.332;11.180;2022-11-11T08:26:19;0.50;;;0.50;;
11283;SDS011;5698;47.332;11.180;2022-11-11T08:28:47;0.77;;;0.77;;
11283;SDS011;5698;47.332;11.180;2022-11-11T08:31:14;0.90;;;0.70;;
11283;SDS011;5698;47.332;11.180;2022-11-11T08:33:43;0.90;;;0.90;;
11283;SDS011;5698;47.332;11.180;2022-11-11T08:36:10;1.70;;;1.60;;
11283;SDS011;5698;47.332;11.180;2022-11-11T08:38:37;4.03;;;3.77;;
11283;SDS011;5698;47.332;11.180;2022-11-11T08:41:05;4.17;;;3.93;;
11283;SDS011;5698;47.332;11.180;2022-11-11T08:43:33;2.70;;;2.50;;
11283;SDS011;5698;47.332;11.180;2022-11-11T08:46:01;1.77;;;1.50;;
11283;SDS011;5698;47.332;11.180;2022-11-11T08:48:29;1.40;;;1.30;;
11283;SDS011;5698;47.332;11.180;2022-11-11T08:50:58;1.43;;;1.00;;
11283;SDS011;5698;47.332;11.180;2022-11-11T08:53:25;1.70;;;0.60;;
11283;SDS011;5698;47.332;11.180;2022-11-11T08:55:53;0.80;;;0.80;;
11283;SDS011;5698;47.332;11.180;2022-11-11T08:58:20;1.53;;;1.03;;
11283;SDS011;5698;47.332;11.180;2022-11-11T09:00:47;3.70;;;1.90;;
11283;SDS011;5698;47.332;11.180;2022-11-11T09:03:14;4.37;;;3.93;;
11283;SDS011;5698;47.332;11.180;2022-11-11T09:05:41;4.67;;;3.70;;
11283;SDS011;5698;47.332;11.180;2022-11-11T09:08:09;7.00;;;6.40;;
11283;SDS011;5698;47.332;11.180;2022-11-11T09:10:36;5.57;;;4.60;;
11283;SDS011;5698;47.332;11.180;2022-11-11T09:13:04;3.50;;;3.20;;
11283;SDS011;5698;47.332;11.180;2022-11-11T09:15:31;1.90;;;1.80;;
11283;SDS011;5698;47.332;11.180;2022-11-11T09:17:58;2.33;;;2.10;;
11283;SDS011;5698;47.332;11.180;2022-11-11T09:20:27;3.83;;;2.50;;
11283;SDS011;5698;47.332;11.180;2022-11-11T09:22:54;1.97;;;1.53;;
11283;SDS011;5698;47.332;11.180;2022-11-11T09:25:23;1.47;;;1.37;;
11283;SDS011;5698;47.332;11.180;2022-11-11T09:27:53;1.93;;;1.47;;
11283;SDS011;5698;47.332;11.180;2022-11-11T09:30:21;1.87;;;1.20;;
11283;SDS011;5698;47.332;11.180;2022-11-11T09:32:48;2.87;;;1.20;;
11283;SDS011;5698;47.332;11.180;2022-11-11T09:35:15;1.43;;;0.90;;
11283;SDS011;5698;47.332;11.180;2022-11-11T09:37:51;1.00;;;0.80;;
11283;SDS011;5698;47.332;11.180;2022-11-11T09:40:20;0.73;;;0.73;;
11283;SDS011;5698;47.332;11.180;2022-11-11T09:42:54;2.30;;;1.10;;
11283;SDS011;5698;47.332;11.180;2022-11-11T09:45:29;1.03;;;0.93;;
11283;SDS011;5698;47.332;11.180;2022-11-11T09:48:06;1.27;;;1.10;;
11283;SDS011;5698;47.332;11.180;2022-11-11T09:50:47;0.90;;;0.77;;
11283;SDS011;5698;47.332;11.180;2022-11-11T09:53:20;0.60;;;0.60;;
11283;SDS011;5698;47.332;11.180;2022-11-11T09:55:55;0.70;;;0.70;;
11283;SDS011;5698;47.332;11.180;2022-11-11T09:58:28;1.23;;;0.63;;
11283;SDS011;5698;47.332;11.180;2022-11-11T10:01:00;0.40;;;0.40;;
11283;SDS011;5698;47.332;11.180;2022-11-11T10:03:37;0.60;;;0.60;;
11283;SDS011;5698;47.332;11.180;2022-11-11T10:06:08;0.70;;;0.70;;
11283;SDS011;5698;47.332;11.180;2022-11-11T10:08:44;1.67;;;0.50;;
11283;SDS011;5698;47.332;11.180;2022-11-11T10:11:17;0.50;;;0.47;;
11283;SDS011;5698;47.332;11.180;2022-11-11T10:14:05;1.37;;;0.50;;
11283;SDS011;5698;47.332;11.180;2022-11-11T10:16:33;0.40;;;0.40;;
11283;SDS011;5698;47.332;11.180;2022-11-11T10:19:10;1.33;;;1.23;;
11283;SDS011;5698;47.332;11.180;2022-11-11T10:21:49;0.60;;;0.60;;
11283;SDS011;5698;47.332;11.180;2022-11-11T10:24:21;3.30;;;3.00;;
11283;SDS011;5698;47.332;11.180;2022-11-11T10:26:56;0.90;;;0.90;;
11283;SDS011;5698;47.332;11.180;2022-11-11T10:29:29;0.80;;;0.70;;
11283;SDS011;5698;47.332;11.180;2022-11-11T10:32:02;2.97;;;1.43;;
11283;SDS011;5698;47.332;11.180;2022-11-11T10:34:35;5.17;;;4.67;;
11283;SDS011;5698;47.332;11.180;2022-11-11T10:37:02;3.63;;;3.33;;
11283;SDS011;5698;47.332;11.180;2022-11-11T10:39:43;1.20;;;1.10;;
11283;SDS011;5698;47.332;11.180;2022-11-11T10:42:21;0.70;;;0.70;;
11283;SDS011;5698;47.332;11.180;2022-11-11T10:44:48;1.83;;;1.60;;
11283;SDS011;5698;47.332;11.180;2022-11-11T10:47:23;0.40;;;0.40;;
11283;SDS011;5698;47.332;11.180;2022-11-11T10:50:06;1.43;;;0.40;;
11283;SDS011;5698;47.332;11.180;2022-11-11T10:52:40;0.50;;;0.50;;
11283;SDS011;5698;47.332;11.180;2022-11-11T10:55:12;0.47;;;0.47;;
11283;SDS011;5698;47.332;11.180;2022-11-11T10:57:45;0.43;;;0.40;;
11283;SDS011;5698;47.332;11.180;2022-11-11T11:00:16;0.70;;;0.60;;
11283;SDS011;5698;47.332;11.180;2022-11-11T11:02:44;0.30;;;0.30;;
11283;SDS011;5698;47.332;11.180;2022-11-11T11:05:19;0.47;;;0.43;;
11283;SDS011;5698;47.332;11.180;2022-11-11T11:07:52;0.40;;;0.40;;
11283;SDS011;5698;47.332;11.180;2022-11-11T11:10:23;2.20;;;0.40;;
11283;SDS011;5698;47.332;11.180;2022-11-11T11:12:59;0.40;;;0.40;;
11283;SDS011;5698;47.332;11.180;2022-11-11T11:15:32;0.53;;;0.50;;
11283;SDS011;5698;47.332;11.180;2022-11-11T11:18:05;0.67;;;0.53;;
11283;SDS011;5698;47.332;11.180;2022-11-11T11:20:34;0.40;;;0.40;;
11283;SDS011;5698;47.332;11.180;2022-11-11T11:23:01;0.80;;;0.50;;
11283;SDS011;5698;47.332;11.180;2022-11-11T11:25:29;0.73;;;0.60;;
11283;SDS011;5698;47.332;11.180;2022-11-11T11:28:06;0.40;;;0.40;;
11283;SDS011;5698;47.332;11.180;2022-11-11T11:30:35;0.50;;;0.47;;
11283;SDS011;5698;47.332;11.180;2022-11-11T11:33:02;0.43;;;0.43;;
11283;SDS011;5698;47.332;11.180;2022-11-11T11:35:31;2.10;;;0.40;;
11283;SDS011;5698;47.332;11.180;2022-11-11T11:38:01;0.80;;;0.50;;
11283;SDS011;5698;47.332;11.180;2022-11-11T11:40:43;0.40;;;0.40;;
11283;SDS011;5698;47.332;11.180;2022-11-11T11:43:26;0.40;;;0.40;;
11283;SDS011;5698;47.332;11.180;2022-11-11T11:45:59;0.53;;;0.50;;
11283;SDS011;5698;47.332;11.180;2022-11-11T11:48:32;0.47;;;0.47;;
11283;SDS011;5698;47.332;11.180;2022-11-11T11:51:18;0.40;;;0.40;;
11283;SDS011;5698;47.332;11.180;2022-11-11T11:53:54;0.30;;;0.30;;
11283;SDS011;5698;47.332;11.180;2022-11-11T11:56:35;0.50;;;0.50;;
11283;SDS011;5698;47.332;11.180;2022-11-11T11:59:08;0.40;;;0.40;;
11283;SDS011;5698;47.332;11.180;2022-11-11T12:01:42;0.43;;;0.43;;
11283;SDS011;5698;47.332;11.180;2022-11-11T12:04:41;0.57;;;0.50;;
11283;SDS011;5698;47.332;11.180;2022-11-11T12:07:29;0.67;;;0.50;;
11283;SDS011;5698;47.332;11.180;2022-11-11T12:10:23;1.00;;;0.60;;
11283;SDS011;5698;47.332;11.180;2022-11-11T12:12:56;1.43;;;0.50;;
11283;SDS011;5698;47.332;11.180;2022-11-11T12:15:35;0.40;;;0.40;;
11283;SDS011;5698;47.332;11.180;2022-11-11T12:18:08;0.93;;;0.50;;
11283;SDS011;5698;47.332;11.180;2022-11-11T12:20:46;0.40;;;0.40;;
11283;SDS011;5698;47.332;11.180;2022-11-11T12:23:35;0.47;;;0.47;;
11283;SDS011;5698;47.332;11.180;2022-11-11T12:26:16;0.87;;;0.40;;
11283;SDS011;5698;47.332;11.180;2022-11-11T12:28:51;0.40;;;0.40;;
11283;SDS011;5698;47.332;11.180;2022-11-11T12:31:32;0.40;;;0.30;;
11283;SDS011;5698;47.332;11.180;2022-11-11T12:34:16;0.40;;;0.37;;
11283;SDS011;5698;47.332;11.180;2022-11-11T12:36:53;0.30;;;0.30;;
11283;SDS011;5698;47.332;11.180;2022-11-11T12:42:23;0.30;;;0.30;;
11283;SDS011;5698;47.332;11.180;2022-11-11T12:45:00;0.80;;;0.50;;
11283;SDS011;5698;47.332;11.180;2022-11-11T12:47:42;0.40;;;0.40;;
11283;SDS011;5698;47.332;11.180;2022-11-11T12:50:20;0.40;;;0.40;;
11283;SDS011;5698;47.332;11.180;2022-11-11T12:52:55;0.80;;;0.43;;
11283;SDS011;5698;47.332;11.180;2022-11-11T12:55:34;0.50;;;0.50;;
11283;SDS011;5698;47.332;11.180;2022-11-11T12:58:09;0.40;;;0.40;;
11283;SDS011;5698;47.332;11.180;2022-11-11T13:00:48;0.70;;;0.70;;
11283;SDS011;5698;47.332;11.180;2022-11-11T13:06:19;0.60;;;0.50;;
11283;SDS011;5698;47.332;11.180;2022-11-11T13:09:00;2.00;;;0.80;;
11283;SDS011;5698;47.332;11.180;2022-11-11T13:11:51;0.70;;;0.70;;
11283;SDS011;5698;47.332;11.180;2022-11-11T13:14:30;1.27;;;0.60;;
11283;SDS011;5698;47.332;11.180;2022-11-11T13:17:13;1.27;;;0.80;;
11283;SDS011;5698;47.332;11.180;2022-11-11T13:19:43;0.50;;;0.50;;
11283;SDS011;5698;47.332;11.180;2022-11-11T13:22:15;0.73;;;0.70;;
11283;SDS011;5698;47.332;11.180;2022-11-11T13:24:47;0.83;;;0.83;;
11283;SDS011;5698;47.332;11.180;2022-11-11T13:27:16;0.93;;;0.83;;
11283;SDS011;5698;47.332;11.180;2022-11-11T13:29:55;2.27;;;0.80;;
11283;SDS011;5698;47.332;11.180;2022-11-11T13:32:30;0.80;;;0.60;;
11283;SDS011;5698;47.332;11.180;2022-11-11T13:35:04;1.23;;;0.67;;
11283;SDS011;5698;47.332;11.180;2022-11-11T13:37:43;0.63;;;0.53;;
11283;SDS011;5698;47.332;11.180;2022-11-11T13:40:20;1.17;;;0.70;;
11283;SDS011;5698;47.332;11.180;2022-11-11T13:42:54;0.43;;;0.43;;
11283;SDS011;5698;47.332;11.180;2022-11-11T13:45:23;0.57;;;0.57;;
11283;SDS011;5698;47.332;11.180;2022-11-11T13:47:53;2.43;;;0.70;;
11283;SDS011;5698;47.332;11.180;2022-11-11T13:50:25;0.80;;;0.53;;
11283;SDS011;5698;47.332;11.180;2022-11-11T13:52:55;0.87;;;0.70;;
11283;SDS011;5698;47.332;11.180;2022-11-11T13:55:28;0.50;;;0.50;;
11283;SDS011;5698;47.332;11.180;2022-11-11T13:57:59;0.70;;;0.70;;
11283;SDS011;5698;47.332;11.180;2022-11-11T14:00:28;1.07;;;0.60;;
11283;SDS011;5698;47.332;11.180;2022-11-11T14:09:01;0.60;;;0.60;;
11283;SDS011;5698;47.332;11.180;2022-11-11T14:11:30;1.83;;;0.80;;
11283;SDS011;5698;47.332;11.180;2022-11-11T14:14:43;0.40;;;0.40;;
11283;SDS011;5698;47.332;11.180;2022-11-11T14:17:04;0.70;;;0.60;;
11283;SDS011;5698;47.332;11.180;2022-11-11T14:19:39;0.83;;;0.60;;
11283;SDS011;5698;47.332;11.180;2022-11-11T14:25:10;0.53;;;0.53;;
11283;SDS011;5698;47.332;11.180;2022-11-11T14:27:47;0.47;;;0.47;;
11283;SDS011;5698;47.332;11.180;2022-11-11T14:30:28;0.93;;;0.63;;
11283;SDS011;5698;47.332;11.180;2022-11-11T14:33:05;1.10;;;0.60;;
11283;SDS011;5698;47.332;11.180;2022-11-11T14:35:43;2.20;;;0.80;;
11283;SDS011;5698;47.332;11.180;2022-11-11T14:50:00;0.73;;;0.60;;
11283;SDS011;5698;47.332;11.180;2022-11-11T14:52:29;2.40;;;0.83;;
11283;SDS011;5698;47.332;11.180;2022-11-11T14:55:02;0.80;;;0.80;;
11283;SDS011;5698;47.332;11.180;2022-11-11T14:57:39;0.83;;;0.77;;
11283;SDS011;5698;47.332;11.180;2022-11-11T15:00:09;1.83;;;0.70;;
11283;SDS011;5698;47.332;11.180;2022-11-11T15:02:41;1.00;;;0.80;;
11283;SDS011;5698;47.332;11.180;2022-11-11T15:05:15;0.83;;;0.73;;
11283;SDS011;5698;47.332;11.180;2022-11-11T15:10:44;0.73;;;0.60;;
11283;SDS011;5698;47.332;11.180;2022-11-11T15:16:33;0.50;;;0.50;;
11283;SDS011;5698;47.332;11.180;2022-11-11T15:22:21;0.47;;;0.47;;
11283;SDS011;5698;47.332;11.180;2022-11-11T15:24:57;0.50;;;0.50;;
11283;SDS011;5698;47.332;11.180;2022-11-11T15:27:35;0.50;;;0.50;;
11283;SDS011;5698;47.332;11.180;2022-11-11T15:30:11;0.60;;;0.60;;
11283;SDS011;5698;47.332;11.180;2022-11-11T15:32:47;0.50;;;0.50;;
11283;SDS011;5698;47.332;11.180;2022-11-11T15:35:33;0.60;;;0.60;;
11283;SDS011;5698;47.332;11.180;2022-11-11T15:38:08;0.60;;;0.60;;
11283;SDS011;5698;47.332;11.180;2022-11-11T15:40:43;1.07;;;0.50;;
11283;SDS011;5698;47.332;11.180;2022-11-11T15:43:13;0.47;;;0.47;;
11283;SDS011;5698;47.332;11.180;2022-11-11T15:45:44;4.57;;;0.80;;
11283;SDS011;5698;47.332;11.180;2022-11-11T15:48:16;0.57;;;0.57;;
11283;SDS011;5698;47.332;11.180;2022-11-11T15:50:45;0.50;;;0.50;;
11283;SDS011;5698;47.332;11.180;2022-11-11T15:53:12;0.40;;;0.40;;
11283;SDS011;5698;47.332;11.180;2022-11-11T15:55:40;0.70;;;0.70;;
11283;SDS011;5698;47.332;11.180;2022-11-11T15:58:23;0.60;;;0.60;;